sensor_id;sensor_type;location;lat;lon;timestamp;P1;durP1;ratioP1;P2;durP2;ratioP2
43845;SDS011;32485;51.112;13.640;2022-08-19T00:00:37;13.15;;;11.52;;
43845;SDS011;32485;51.112;13.640;2022-08-19T00:03:05;13.93;;;12.48;;
43845;SDS011;32485;51.112;13.640;2022-08-19T00:05:33;15.48;;;11.63;;
43845;SDS011;32485;51.112;13.640;2022-08-19T00:08:01;14.35;;;12.75;;
43845;SDS011;32485;51.112;13.640;2022-08-19T00:10:28;14.48;;;11.38;;
43845;SDS011;32485;51.112;13.640;2022-08-19T00:12:56;15.05;;;12.50;;
43845;SDS011;32485;51.112;13.640;2022-08-19T00:15:24;15.10;;;11.65;;
43845;SDS011;32485;51.112;13.640;2022-08-19T00:17:52;13.98;;;12.55;;
43845;SDS011;32485;51.112;13.640;2022-08-19T00:20:21;14.75;;;13.20;;
43845;SDS011;32485;51.112;13.640;2022-08-19T00:22:49;14.05;;;12.70;;
43845;SDS011;32485;51.112;13.640;2022-08-19T00:25:16;14.77;;;12.85;;
43845;SDS011;32485;51.112;13.640;2022-08-19T00:27:44;14.65;;;13.20;;
43845;SDS011;32485;51.112;13.640;2022-08-19T00:30:12;13.95;;;12.63;;
43845;SDS011;32485;51.112;13.640;2022-08-19T00:32:41;15.45;;;13.75;;
43845;SDS011;32485;51.112;13.640;2022-08-19T00:35:08;14.85;;;12.48;;
43845;SDS011;32485;51.112;13.640;2022-08-19T00:37:36;14.57;;;13.13;;
43845;SDS011;32485;51.112;13.640;2022-08-19T00:40:08;15.63;;;14.02;;
43845;SDS011;32485;51.112;13.640;2022-08-19T00:42:37;17.67;;;13.23;;
43845;SDS011;32485;51.112;13.640;2022-08-19T00:45:08;13.80;;;12.50;;
43845;SDS011;32485;51.112;13.640;2022-08-19T00:47:38;14.32;;;12.93;;
43845;SDS011;32485;51.112;13.640;2022-08-19T00:50:07;14.45;;;13.02;;
43845;SDS011;32485;51.112;13.640;2022-08-19T00:52:37;16.10;;;12.90;;
43845;SDS011;32485;51.112;13.640;2022-08-19T00:55:11;14.70;;;13.07;;
43845;SDS011;32485;51.112;13.640;2022-08-19T00:57:44;18.42;;;13.50;;
43845;SDS011;32485;51.112;13.640;2022-08-19T01:00:19;14.50;;;13.00;;
43845;SDS011;32485;51.112;13.640;2022-08-19T01:02:48;16.92;;;12.77;;
43845;SDS011;32485;51.112;13.640;2022-08-19T01:05:18;13.82;;;12.40;;
43845;SDS011;32485;51.112;13.640;2022-08-19T01:07:49;16.05;;;14.35;;
43845;SDS011;32485;51.112;13.640;2022-08-19T01:10:19;16.70;;;14.02;;
43845;SDS011;32485;51.112;13.640;2022-08-19T01:12:51;16.10;;;14.50;;
43845;SDS011;32485;51.112;13.640;2022-08-19T01:15:21;18.42;;;14.82;;
43845;SDS011;32485;51.112;13.640;2022-08-19T01:17:53;17.92;;;15.38;;
43845;SDS011;32485;51.112;13.640;2022-08-19T01:20:23;18.75;;;14.85;;
43845;SDS011;32485;51.112;13.640;2022-08-19T01:22:53;15.52;;;13.93;;
43845;SDS011;32485;51.112;13.640;2022-08-19T01:25:24;17.05;;;15.25;;
43845;SDS011;32485;51.112;13.640;2022-08-19T01:27:57;16.15;;;14.55;;
43845;SDS011;32485;51.112;13.640;2022-08-19T01:30:26;17.13;;;14.23;;
43845;SDS011;32485;51.112;13.640;2022-08-19T01:32:57;17.90;;;14.80;;
43845;SDS011;32485;51.112;13.640;2022-08-19T01:35:26;18.35;;;14.90;;
43845;SDS011;32485;51.112;13.640;2022-08-19T01:37:58;16.90;;;14.25;;
43845;SDS011;32485;51.112;13.640;2022-08-19T01:40:32;15.70;;;14.13;;
43845;SDS011;32485;51.112;13.640;2022-08-19T01:43:05;16.25;;;14.70;;
43845;SDS011;32485;51.112;13.640;2022-08-19T01:45:33;17.67;;;14.35;;
43845;SDS011;32485;51.112;13.640;2022-08-19T01:48:02;16.25;;;14.60;;
43845;SDS011;32485;51.112;13.640;2022-08-19T01:50:30;16.65;;;14.07;;
43845;SDS011;32485;51.112;13.640;2022-08-19T01:53:01;17.40;;;15.40;;
43845;SDS011;32485;51.112;13.640;2022-08-19T01:55:34;17.27;;;14.77;;
43845;SDS011;32485;51.112;13.640;2022-08-19T01:58:03;17.40;;;15.43;;
43845;SDS011;32485;51.112;13.640;2022-08-19T02:00:33;16.40;;;14.68;;
43845;SDS011;32485;51.112;13.640;2022-08-19T02:03:01;16.65;;;14.98;;
43845;SDS011;32485;51.112;13.640;2022-08-19T02:05:28;16.58;;;14.82;;
43845;SDS011;32485;51.112;13.640;2022-08-19T02:07:55;16.50;;;14.90;;
43845;SDS011;32485;51.112;13.640;2022-08-19T02:10:25;15.93;;;14.30;;
43845;SDS011;32485;51.112;13.640;2022-08-19T02:12:52;16.75;;;14.73;;
43845;SDS011;32485;51.112;13.640;2022-08-19T02:15:19;16.02;;;14.43;;
43845;SDS011;32485;51.112;13.640;2022-08-19T02:17:47;17.33;;;15.50;;
43845;SDS011;32485;51.112;13.640;2022-08-19T02:20:15;15.95;;;14.35;;
43845;SDS011;32485;51.112;13.640;2022-08-19T02:22:43;19.23;;;14.88;;
43845;SDS011;32485;51.112;13.640;2022-08-19T02:25:11;17.90;;;15.15;;
43845;SDS011;32485;51.112;13.640;2022-08-19T02:27:41;18.70;;;16.50;;
43845;SDS011;32485;51.112;13.640;2022-08-19T02:30:10;16.92;;;15.32;;
43845;SDS011;32485;51.112;13.640;2022-08-19T02:32:41;16.38;;;14.68;;
43845;SDS011;32485;51.112;13.640;2022-08-19T02:35:09;15.38;;;13.77;;
43845;SDS011;32485;51.112;13.640;2022-08-19T02:37:36;17.35;;;15.55;;
43845;SDS011;32485;51.112;13.640;2022-08-19T02:40:21;16.15;;;14.55;;
43845;SDS011;32485;51.112;13.640;2022-08-19T02:42:50;16.52;;;14.45;;
43845;SDS011;32485;51.112;13.640;2022-08-19T02:45:18;16.52;;;14.43;;
43845;SDS011;32485;51.112;13.640;2022-08-19T02:47:45;17.08;;;15.27;;
43845;SDS011;32485;51.112;13.640;2022-08-19T02:50:12;15.10;;;13.52;;
43845;SDS011;32485;51.112;13.640;2022-08-19T02:52:39;16.63;;;14.10;;
43845;SDS011;32485;51.112;13.640;2022-08-19T02:55:07;16.88;;;14.98;;
43845;SDS011;32485;51.112;13.640;2022-08-19T02:57:35;17.20;;;15.40;;
43845;SDS011;32485;51.112;13.640;2022-08-19T03:00:05;14.80;;;13.40;;
43845;SDS011;32485;51.112;13.640;2022-08-19T03:02:36;19.83;;;16.35;;
43845;SDS011;32485;51.112;13.640;2022-08-19T03:05:04;19.13;;;14.88;;
43845;SDS011;32485;51.112;13.640;2022-08-19T03:07:34;16.50;;;14.75;;
43845;SDS011;32485;51.112;13.640;2022-08-19T03:10:02;17.10;;;15.02;;
43845;SDS011;32485;51.112;13.640;2022-08-19T03:12:31;18.02;;;16.23;;
43845;SDS011;32485;51.112;13.640;2022-08-19T03:15:05;17.05;;;15.35;;
43845;SDS011;32485;51.112;13.640;2022-08-19T03:17:34;16.77;;;15.05;;
43845;SDS011;32485;51.112;13.640;2022-08-19T03:20:02;19.42;;;17.40;;
43845;SDS011;32485;51.112;13.640;2022-08-19T03:22:31;18.17;;;16.38;;
43845;SDS011;32485;51.112;13.640;2022-08-19T03:24:58;19.27;;;17.23;;
43845;SDS011;32485;51.112;13.640;2022-08-19T03:27:26;17.10;;;15.38;;
43845;SDS011;32485;51.112;13.640;2022-08-19T03:29:53;17.52;;;15.73;;
43845;SDS011;32485;51.112;13.640;2022-08-19T03:32:23;18.67;;;16.60;;
43845;SDS011;32485;51.112;13.640;2022-08-19T03:34:50;16.05;;;14.52;;
43845;SDS011;32485;51.112;13.640;2022-08-19T03:37:17;16.35;;;14.68;;
43845;SDS011;32485;51.112;13.640;2022-08-19T03:39:44;16.77;;;15.00;;
43845;SDS011;32485;51.112;13.640;2022-08-19T03:42:11;15.05;;;13.45;;
43845;SDS011;32485;51.112;13.640;2022-08-19T03:44:38;16.52;;;14.93;;
43845;SDS011;32485;51.112;13.640;2022-08-19T03:47:07;16.52;;;14.77;;
43845;SDS011;32485;51.112;13.640;2022-08-19T03:49:35;17.40;;;15.18;;
43845;SDS011;32485;51.112;13.640;2022-08-19T03:52:03;18.50;;;15.95;;
43845;SDS011;32485;51.112;13.640;2022-08-19T03:54:32;16.55;;;14.90;;
43845;SDS011;32485;51.112;13.640;2022-08-19T03:57:00;19.48;;;15.05;;
43845;SDS011;32485;51.112;13.640;2022-08-19T03:59:30;17.23;;;15.10;;
43845;SDS011;32485;51.112;13.640;2022-08-19T04:02:00;16.52;;;14.90;;
43845;SDS011;32485;51.112;13.640;2022-08-19T04:04:33;15.98;;;14.32;;
43845;SDS011;32485;51.112;13.640;2022-08-19T04:07:02;17.83;;;14.80;;
43845;SDS011;32485;51.112;13.640;2022-08-19T04:09:30;16.33;;;14.70;;
43845;SDS011;32485;51.112;13.640;2022-08-19T04:11:57;16.95;;;14.55;;
43845;SDS011;32485;51.112;13.640;2022-08-19T04:14:25;17.27;;;14.80;;
43845;SDS011;32485;51.112;13.640;2022-08-19T04:16:55;16.67;;;14.50;;
43845;SDS011;32485;51.112;13.640;2022-08-19T04:19:23;17.70;;;15.63;;
43845;SDS011;32485;51.112;13.640;2022-08-19T04:21:53;19.13;;;16.73;;
43845;SDS011;32485;51.112;13.640;2022-08-19T04:26:48;17.05;;;15.27;;
43845;SDS011;32485;51.112;13.640;2022-08-19T04:29:17;17.92;;;16.05;;
43845;SDS011;32485;51.112;13.640;2022-08-19T04:31:49;17.67;;;15.88;;
43845;SDS011;32485;51.112;13.640;2022-08-19T04:34:19;18.30;;;14.90;;
43845;SDS011;32485;51.112;13.640;2022-08-19T04:36:48;17.05;;;15.35;;
43845;SDS011;32485;51.112;13.640;2022-08-19T04:39:19;16.27;;;14.68;;
43845;SDS011;32485;51.112;13.640;2022-08-19T04:42:09;16.35;;;14.63;;
43845;SDS011;32485;51.112;13.640;2022-08-19T04:44:53;14.73;;;13.38;;
43845;SDS011;32485;51.112;13.640;2022-08-19T04:47:20;18.05;;;16.15;;
43845;SDS011;32485;51.112;13.640;2022-08-19T04:49:48;16.98;;;15.27;;
43845;SDS011;32485;51.112;13.640;2022-08-19T04:52:15;17.50;;;15.35;;
43845;SDS011;32485;51.112;13.640;2022-08-19T04:54:43;15.73;;;14.13;;
43845;SDS011;32485;51.112;13.640;2022-08-19T04:57:10;16.90;;;15.20;;
43845;SDS011;32485;51.112;13.640;2022-08-19T04:59:38;17.52;;;14.68;;
43845;SDS011;32485;51.112;13.640;2022-08-19T05:02:06;17.58;;;15.10;;
43845;SDS011;32485;51.112;13.640;2022-08-19T05:04:35;18.07;;;16.17;;
43845;SDS011;32485;51.112;13.640;2022-08-19T05:07:04;16.63;;;15.00;;
43845;SDS011;32485;51.112;13.640;2022-08-19T05:09:31;18.90;;;15.60;;
43845;SDS011;32485;51.112;13.640;2022-08-19T05:11:59;17.98;;;16.13;;
43845;SDS011;32485;51.112;13.640;2022-08-19T05:14:27;16.88;;;15.27;;
43845;SDS011;32485;51.112;13.640;2022-08-19T05:16:54;17.25;;;15.38;;
43845;SDS011;32485;51.112;13.640;2022-08-19T05:19:21;17.23;;;15.52;;
43845;SDS011;32485;51.112;13.640;2022-08-19T05:22:06;19.42;;;17.42;;
43845;SDS011;32485;51.112;13.640;2022-08-19T05:24:51;18.50;;;16.35;;
43845;SDS011;32485;51.112;13.640;2022-08-19T05:27:19;18.63;;;16.70;;
43845;SDS011;32485;51.112;13.640;2022-08-19T05:29:46;18.13;;;16.23;;
43845;SDS011;32485;51.112;13.640;2022-08-19T05:32:13;17.95;;;15.85;;
43845;SDS011;32485;51.112;13.640;2022-08-19T05:34:40;18.33;;;16.13;;
43845;SDS011;32485;51.112;13.640;2022-08-19T05:37:08;18.88;;;15.43;;
43845;SDS011;32485;51.112;13.640;2022-08-19T05:39:35;17.75;;;15.90;;
43845;SDS011;32485;51.112;13.640;2022-08-19T05:42:04;16.60;;;14.85;;
43845;SDS011;32485;51.112;13.640;2022-08-19T05:44:36;16.73;;;15.07;;
43845;SDS011;32485;51.112;13.640;2022-08-19T05:47:09;16.00;;;14.43;;
43845;SDS011;32485;51.112;13.640;2022-08-19T05:49:39;16.10;;;13.60;;
43845;SDS011;32485;51.112;13.640;2022-08-19T05:52:08;13.38;;;12.07;;
43845;SDS011;32485;51.112;13.640;2022-08-19T05:54:38;15.93;;;12.40;;
43845;SDS011;32485;51.112;13.640;2022-08-19T05:57:07;12.45;;;11.18;;
43845;SDS011;32485;51.112;13.640;2022-08-19T05:59:36;13.18;;;10.77;;
43845;SDS011;32485;51.112;13.640;2022-08-19T06:02:04;12.90;;;10.55;;
43845;SDS011;32485;51.112;13.640;2022-08-19T06:04:32;11.98;;;9.43;;
43845;SDS011;32485;51.112;13.640;2022-08-19T06:07:00;11.23;;;9.77;;
43845;SDS011;32485;51.112;13.640;2022-08-19T06:09:27;10.65;;;9.40;;
43845;SDS011;32485;51.112;13.640;2022-08-19T06:11:56;10.13;;;9.07;;
43845;SDS011;32485;51.112;13.640;2022-08-19T06:14:28;10.13;;;9.02;;
43845;SDS011;32485;51.112;13.640;2022-08-19T06:17:00;11.77;;;9.88;;
43845;SDS011;32485;51.112;13.640;2022-08-19T06:19:28;17.02;;;9.05;;
43845;SDS011;32485;51.112;13.640;2022-08-19T06:21:57;11.98;;;9.18;;
43845;SDS011;32485;51.112;13.640;2022-08-19T06:24:26;10.55;;;9.55;;
43845;SDS011;32485;51.112;13.640;2022-08-19T06:26:55;12.68;;;11.32;;
43845;SDS011;32485;51.112;13.640;2022-08-19T06:29:24;12.40;;;11.18;;
43845;SDS011;32485;51.112;13.640;2022-08-19T06:31:54;12.15;;;10.88;;
43845;SDS011;32485;51.112;13.640;2022-08-19T06:34:25;12.90;;;11.68;;
43845;SDS011;32485;51.112;13.640;2022-08-19T06:36:54;14.65;;;13.15;;
43845;SDS011;32485;51.112;13.640;2022-08-19T06:39:27;14.70;;;12.52;;
43845;SDS011;32485;51.112;13.640;2022-08-19T06:41:59;17.73;;;13.48;;
43845;SDS011;32485;51.112;13.640;2022-08-19T06:44:29;17.90;;;15.50;;
43845;SDS011;32485;51.112;13.640;2022-08-19T06:47:01;16.65;;;14.95;;
43845;SDS011;32485;51.112;13.640;2022-08-19T06:49:31;18.50;;;16.60;;
43845;SDS011;32485;51.112;13.640;2022-08-19T06:52:00;19.83;;;16.63;;
43845;SDS011;32485;51.112;13.640;2022-08-19T06:54:28;19.08;;;17.08;;
43845;SDS011;32485;51.112;13.640;2022-08-19T06:56:55;20.00;;;17.80;;
43845;SDS011;32485;51.112;13.640;2022-08-19T06:59:23;19.50;;;17.60;;
43845;SDS011;32485;51.112;13.640;2022-08-19T07:01:53;22.38;;;19.13;;
43845;SDS011;32485;51.112;13.640;2022-08-19T07:04:22;21.80;;;18.13;;
43845;SDS011;32485;51.112;13.640;2022-08-19T07:06:57;24.55;;;19.92;;
43845;SDS011;32485;51.112;13.640;2022-08-19T07:09:26;21.35;;;19.20;;
43845;SDS011;32485;51.112;13.640;2022-08-19T07:11:54;24.05;;;20.63;;
43845;SDS011;32485;51.112;13.640;2022-08-19T07:14:23;23.55;;;21.20;;
43845;SDS011;32485;51.112;13.640;2022-08-19T07:16:53;25.70;;;22.13;;
43845;SDS011;32485;51.112;13.640;2022-08-19T07:19:22;27.10;;;23.27;;
43845;SDS011;32485;51.112;13.640;2022-08-19T07:21:52;28.45;;;23.30;;
43845;SDS011;32485;51.112;13.640;2022-08-19T07:24:22;27.33;;;23.08;;
43845;SDS011;32485;51.112;13.640;2022-08-19T07:26:52;28.70;;;23.02;;
43845;SDS011;32485;51.112;13.640;2022-08-19T07:29:24;23.23;;;20.90;;
43845;SDS011;32485;51.112;13.640;2022-08-19T07:31:51;23.30;;;20.88;;
43845;SDS011;32485;51.112;13.640;2022-08-19T07:34:21;21.90;;;19.67;;
43845;SDS011;32485;51.112;13.640;2022-08-19T07:36:49;25.60;;;21.15;;
43845;SDS011;32485;51.112;13.640;2022-08-19T07:39:18;24.02;;;21.48;;
43845;SDS011;32485;51.112;13.640;2022-08-19T07:41:49;23.67;;;21.27;;
43845;SDS011;32485;51.112;13.640;2022-08-19T07:44:16;22.38;;;20.17;;
43845;SDS011;32485;51.112;13.640;2022-08-19T07:46:46;23.27;;;20.75;;
43845;SDS011;32485;51.112;13.640;2022-08-19T07:49:19;23.63;;;21.23;;
43845;SDS011;32485;51.112;13.640;2022-08-19T07:51:47;25.50;;;22.90;;
43845;SDS011;32485;51.112;13.640;2022-08-19T07:54:16;23.90;;;21.50;;
43845;SDS011;32485;51.112;13.640;2022-08-19T07:56:48;23.80;;;21.40;;
43845;SDS011;32485;51.112;13.640;2022-08-19T07:59:15;25.57;;;22.10;;
43845;SDS011;32485;51.112;13.640;2022-08-19T08:01:44;26.52;;;21.52;;
43845;SDS011;32485;51.112;13.640;2022-08-19T08:04:12;23.83;;;21.27;;
43845;SDS011;32485;51.112;13.640;2022-08-19T08:06:57;24.10;;;21.08;;
43845;SDS011;32485;51.112;13.640;2022-08-19T08:09:43;23.67;;;21.27;;
43845;SDS011;32485;51.112;13.640;2022-08-19T08:12:13;22.40;;;20.15;;
43845;SDS011;32485;51.112;13.640;2022-08-19T08:14:48;22.58;;;20.38;;
43845;SDS011;32485;51.112;13.640;2022-08-19T08:17:20;22.45;;;20.13;;
43845;SDS011;32485;51.112;13.640;2022-08-19T08:19:49;21.63;;;19.30;;
43845;SDS011;32485;51.112;13.640;2022-08-19T08:22:17;20.60;;;18.63;;
43845;SDS011;32485;51.112;13.640;2022-08-19T08:25:03;20.77;;;18.52;;
43845;SDS011;32485;51.112;13.640;2022-08-19T08:27:36;19.25;;;17.30;;
43845;SDS011;32485;51.112;13.640;2022-08-19T08:30:06;20.00;;;17.50;;
43845;SDS011;32485;51.112;13.640;2022-08-19T08:32:35;18.35;;;16.55;;
43845;SDS011;32485;51.112;13.640;2022-08-19T08:35:02;17.40;;;15.60;;
43845;SDS011;32485;51.112;13.640;2022-08-19T08:37:30;17.95;;;16.15;;
43845;SDS011;32485;51.112;13.640;2022-08-19T08:39:58;17.63;;;15.93;;
43845;SDS011;32485;51.112;13.640;2022-08-19T08:42:27;18.75;;;16.40;;
43845;SDS011;32485;51.112;13.640;2022-08-19T08:45:00;19.75;;;16.50;;
43845;SDS011;32485;51.112;13.640;2022-08-19T08:47:32;17.70;;;15.85;;
43845;SDS011;32485;51.112;13.640;2022-08-19T08:50:07;21.23;;;16.33;;
43845;SDS011;32485;51.112;13.640;2022-08-19T08:52:41;20.85;;;17.42;;
43845;SDS011;32485;51.112;13.640;2022-08-19T08:55:13;17.63;;;15.77;;
43845;SDS011;32485;51.112;13.640;2022-08-19T08:57:48;17.02;;;15.32;;
43845;SDS011;32485;51.112;13.640;2022-08-19T09:00:22;18.27;;;16.52;;
43845;SDS011;32485;51.112;13.640;2022-08-19T09:02:52;17.30;;;15.55;;
43845;SDS011;32485;51.112;13.640;2022-08-19T09:05:20;18.70;;;16.73;;
43845;SDS011;32485;51.112;13.640;2022-08-19T09:07:51;17.42;;;15.55;;
43845;SDS011;32485;51.112;13.640;2022-08-19T09:10:28;16.83;;;15.23;;
43845;SDS011;32485;51.112;13.640;2022-08-19T09:13:03;18.00;;;16.20;;
43845;SDS011;32485;51.112;13.640;2022-08-19T09:15:42;17.53;;;14.57;;
43845;SDS011;32485;51.112;13.640;2022-08-19T09:18:14;16.58;;;14.75;;
43845;SDS011;32485;51.112;13.640;2022-08-19T09:20:42;15.63;;;14.00;;
43845;SDS011;32485;51.112;13.640;2022-08-19T09:23:09;15.75;;;14.00;;
43845;SDS011;32485;51.112;13.640;2022-08-19T09:25:36;15.30;;;13.68;;
43845;SDS011;32485;51.112;13.640;2022-08-19T09:28:05;15.57;;;14.07;;
43845;SDS011;32485;51.112;13.640;2022-08-19T09:30:33;17.00;;;14.38;;
43845;SDS011;32485;51.112;13.640;2022-08-19T09:33:06;14.77;;;13.25;;
43845;SDS011;32485;51.112;13.640;2022-08-19T09:35:34;15.80;;;13.40;;
43845;SDS011;32485;51.112;13.640;2022-08-19T09:38:01;15.93;;;14.13;;
43845;SDS011;32485;51.112;13.640;2022-08-19T09:40:29;14.77;;;13.05;;
43845;SDS011;32485;51.112;13.640;2022-08-19T09:42:57;16.77;;;14.93;;
43845;SDS011;32485;51.112;13.640;2022-08-19T09:45:27;14.40;;;12.95;;
43845;SDS011;32485;51.112;13.640;2022-08-19T09:47:55;16.00;;;12.95;;
43845;SDS011;32485;51.112;13.640;2022-08-19T09:50:24;12.48;;;10.25;;
43845;SDS011;32485;51.112;13.640;2022-08-19T09:52:51;11.25;;;10.13;;
43845;SDS011;32485;51.112;13.640;2022-08-19T09:55:21;10.55;;;9.45;;
43845;SDS011;32485;51.112;13.640;2022-08-19T09:57:49;9.77;;;8.85;;
43845;SDS011;32485;51.112;13.640;2022-08-19T10:00:19;11.73;;;9.10;;
43845;SDS011;32485;51.112;13.640;2022-08-19T10:02:46;10.50;;;9.50;;
43845;SDS011;32485;51.112;13.640;2022-08-19T10:05:13;9.77;;;8.77;;
43845;SDS011;32485;51.112;13.640;2022-08-19T10:08:00;11.60;;;9.70;;
43845;SDS011;32485;51.112;13.640;2022-08-19T10:10:27;11.07;;;9.80;;
43845;SDS011;32485;51.112;13.640;2022-08-19T10:12:54;11.60;;;9.45;;
43845;SDS011;32485;51.112;13.640;2022-08-19T10:15:21;10.00;;;9.02;;
43845;SDS011;32485;51.112;13.640;2022-08-19T10:17:48;8.85;;;8.00;;
43845;SDS011;32485;51.112;13.640;2022-08-19T10:20:15;9.77;;;8.75;;
43845;SDS011;32485;51.112;13.640;2022-08-19T10:22:43;9.60;;;8.70;;
43845;SDS011;32485;51.112;13.640;2022-08-19T10:25:11;8.95;;;8.05;;
43845;SDS011;32485;51.112;13.640;2022-08-19T10:27:39;9.45;;;8.45;;
43845;SDS011;32485;51.112;13.640;2022-08-19T10:30:06;10.73;;;9.73;;
43845;SDS011;32485;51.112;13.640;2022-08-19T10:32:35;9.15;;;8.23;;
